createdAt,value
2023-03-24T07:24:16.918Z,57.96
2023-03-24T07:26:45.384Z,56.80
2023-03-24T07:29:13.475Z,56.84
2023-03-24T07:31:41.164Z,54.89
2023-03-24T07:34:09.213Z,54.36
2023-03-24T07:41:39.037Z,55.87
2023-03-24T07:44:06.585Z,56.19
2023-03-24T07:46:34.623Z,56.06
2023-03-24T07:49:11.874Z,57.19
2023-03-24T07:51:46.079Z,57.05
2023-03-24T07:54:13.534Z,57.53
2023-03-24T07:56:42.107Z,57.50
2023-03-24T07:59:09.940Z,57.61
2023-03-24T08:01:38.732Z,57.71
2023-03-24T08:04:06.998Z,57.77
2023-03-24T08:06:34.963Z,57.98
2023-03-24T08:09:02.508Z,58.22
2023-03-24T08:16:23.135Z,58.95
2023-03-24T08:18:50.845Z,58.81
2023-03-24T08:21:18.370Z,58.65
2023-03-24T08:23:45.823Z,58.66
2023-03-24T08:26:13.398Z,57.39
2023-03-24T08:28:41.693Z,58.18
2023-03-24T08:31:10.185Z,58.64
2023-03-24T08:33:37.693Z,58.11
2023-03-24T08:36:06.746Z,58.38
2023-03-24T08:38:34.454Z,58.33
2023-03-24T08:41:06.938Z,59.06
2023-03-24T08:43:37.749Z,60.35
2023-03-24T08:46:11.206Z,61.25
2023-03-24T08:48:41.300Z,63.33
2023-03-24T08:51:18.111Z,63.45
2023-03-24T08:53:45.629Z,63.26
2023-03-24T08:56:13.181Z,64.12
2023-03-24T08:58:40.657Z,64.67
2023-03-24T09:01:09.186Z,63.56
2023-03-24T09:03:39.692Z,64.63
2023-03-24T09:06:08.654Z,65.26
2023-03-24T09:08:36.363Z,65.91
2023-03-24T09:11:06.056Z,66.28
2023-03-24T09:13:33.930Z,66.66
2023-03-24T09:16:04.218Z,67.11
2023-03-24T09:18:31.920Z,68.06
2023-03-24T09:20:59.499Z,67.68
2023-03-24T09:23:29.252Z,66.59
2023-03-24T09:25:56.723Z,65.54
2023-03-24T09:28:24.762Z,65.82
2023-03-24T09:31:00.335Z,64.31
2023-03-24T09:33:30.536Z,65.07
2023-03-24T09:36:01.850Z,64.04
2023-03-24T09:38:30.311Z,62.65
2023-03-24T09:41:03.019Z,63.14
2023-03-24T09:44:36.573Z,61.16
2023-03-24T09:47:34.893Z,62.01
2023-03-24T09:50:42.034Z,61.32
2023-03-24T09:54:00.874Z,61.19
2023-03-24T09:56:30.232Z,61.23
2023-03-24T09:59:29.132Z,62.25
2023-03-24T10:01:57.970Z,61.14
2023-03-24T10:04:29.183Z,62.44
2023-03-24T10:07:16.386Z,62.56
2023-03-24T10:09:53.290Z,62.73
2023-03-24T10:12:45.487Z,63.27
2023-03-24T10:15:50.700Z,61.47
2023-03-24T10:19:24.368Z,62.82
2023-03-24T10:22:25.837Z,63.53
2023-03-24T10:25:32.894Z,64.40
2023-03-24T10:28:25.137Z,66.09
2023-03-24T10:31:00.494Z,65.93
2023-03-24T10:33:28.517Z,67.25
2023-03-24T10:36:21.533Z,68.41
2023-03-24T10:38:50.504Z,69.30
2023-03-24T10:41:29.187Z,70.68
2023-03-24T10:43:58.262Z,70.15
2023-03-24T10:46:31.488Z,69.46
2023-03-24T10:49:22.733Z,68.84
2023-03-24T10:52:03.713Z,69.46
2023-03-24T10:54:32.712Z,68.97
2023-03-24T10:57:06.321Z,69.51
2023-03-24T10:59:50.837Z,69.94
2023-03-24T11:02:29.688Z,71.30
2023-03-24T11:05:12.221Z,71.19
2023-03-24T11:07:49.019Z,70.56
2023-03-24T11:10:28.924Z,70.14
2023-03-24T11:12:57.903Z,70.73
2023-03-24T11:15:32.013Z,70.22
2023-03-24T11:18:18.232Z,70.40
2023-03-24T11:21:04.362Z,71.24
2023-03-24T11:23:45.836Z,69.58
2023-03-24T11:26:38.375Z,68.50
2023-03-24T11:29:20.961Z,69.81
2023-03-24T11:32:03.753Z,69.04
2023-03-24T11:34:42.276Z,69.97
2023-03-24T11:37:23.596Z,69.82
2023-03-24T11:40:14.700Z,69.34
2023-03-24T11:42:54.820Z,68.11
2023-03-24T11:45:46.152Z,69.28
2023-03-24T11:48:52.034Z,67.31
2023-03-24T11:51:42.791Z,67.32
2023-03-24T11:54:19.322Z,67.90
2023-03-24T11:57:15.406Z,67.69
2023-03-24T12:00:16.400Z,69.31
2023-03-24T12:02:57.679Z,64.95
2023-03-24T12:05:51.251Z,65.55
2023-03-24T12:09:07.466Z,64.05
2023-03-24T12:12:36.335Z,64.34
2023-03-24T12:15:52.316Z,63.73
2023-03-24T12:18:51.878Z,62.56
2023-03-24T12:21:52.841Z,62.49
2023-03-24T12:25:15.603Z,62.92
2023-03-24T12:28:36.278Z,61.96
2023-03-24T12:31:37.642Z,63.83
2023-03-24T12:34:48.639Z,62.23
2023-03-24T12:38:04.325Z,61.27
2023-03-24T12:41:19.157Z,60.52
2023-03-24T12:44:49.633Z,62.02
2023-03-24T12:48:20.453Z,62.94
2023-03-24T12:52:04.501Z,64.02
2023-03-24T12:55:33.307Z,62.57
2023-03-24T12:59:14.119Z,63.48
2023-03-24T13:02:22.629Z,64.66
2023-03-24T13:04:55.957Z,65.09
2023-03-24T13:07:28.628Z,65.26
2023-03-24T13:10:20.487Z,64.40
2023-03-24T13:13:20.376Z,64.04
2023-03-24T13:15:57.547Z,63.22
2023-03-24T13:18:50.512Z,62.86
2023-03-24T13:21:26.538Z,63.11
2023-03-24T13:24:12.850Z,63.60
2023-03-24T13:27:30.337Z,61.38
2023-03-24T13:30:38.433Z,59.51
2023-03-24T13:33:26.640Z,58.67
2023-03-24T13:36:46.931Z,59.46
2023-03-24T13:39:22.760Z,58.69
2023-03-24T13:41:55.471Z,57.43
2023-03-24T13:44:33.897Z,57.32
2023-03-24T13:47:19.499Z,57.04
2023-03-24T13:50:06.785Z,55.31
2023-03-24T13:52:49.890Z,56.40
2023-03-24T13:55:35.054Z,55.92
2023-03-24T13:58:26.264Z,56.48
2023-03-24T14:01:12.285Z,58.47
2023-03-24T14:03:46.468Z,59.09
2023-03-24T14:06:52.834Z,61.43
2023-03-24T14:09:33.114Z,60.78
2023-03-24T14:12:03.809Z,64.40
2023-03-24T14:14:59.705Z,63.47
2023-03-24T14:17:27.325Z,63.40
2023-03-24T14:20:05.052Z,62.66
2023-03-24T14:22:45.132Z,63.71
2023-03-24T14:25:15.397Z,63.21
2023-03-24T14:27:50.377Z,64.01
2023-03-24T14:30:28.404Z,63.77
2023-03-24T14:33:02.688Z,63.40
2023-03-24T14:35:46.662Z,64.63
2023-03-24T14:38:20.475Z,65.42
2023-03-24T14:41:00.134Z,66.07
2023-03-24T14:44:02.675Z,64.76
2023-03-24T14:46:48.167Z,63.71
2023-03-24T14:49:28.979Z,63.89
2023-03-24T14:52:22.801Z,62.17
2023-03-24T14:55:07.181Z,62.96
2023-03-24T14:58:17.899Z,59.46
2023-03-24T15:01:07.171Z,59.71
2023-03-24T15:04:08.426Z,59.56
2023-03-24T15:06:47.614Z,57.26
2023-03-24T15:09:19.265Z,56.36
2023-03-24T15:11:49.117Z,55.87
2023-03-24T15:14:26.566Z,54.48
2023-03-24T15:17:25.328Z,54.87
2023-03-24T15:19:55.152Z,53.26
2023-03-24T15:22:22.558Z,54.32
2023-03-24T15:24:52.384Z,53.52
2023-03-24T15:27:29.189Z,53.63
2023-03-24T15:30:00.229Z,54.43
2023-03-24T15:32:32.913Z,55.41
2023-03-24T15:35:07.784Z,58.98
2023-03-24T15:37:50.967Z,60.64
2023-03-24T15:40:29.777Z,61.61
2023-03-24T15:43:02.876Z,59.99
2023-03-24T15:45:55.285Z,61.35
2023-03-24T15:48:36.353Z,61.08
2023-03-24T15:51:12.858Z,60.45
2023-03-24T15:53:58.271Z,60.66
2023-03-24T15:56:32.186Z,58.93
2023-03-24T15:59:11.916Z,59.35
2023-03-24T16:01:44.096Z,60.16
2023-03-24T16:04:20.517Z,59.52
2023-03-24T16:06:54.416Z,58.83
2023-03-24T16:09:27.727Z,58.43
2023-03-24T16:11:55.425Z,58.99
2023-03-24T16:14:32.634Z,57.77
2023-03-24T16:17:05.934Z,57.90
2023-03-24T16:19:33.481Z,57.84
2023-03-24T16:22:00.980Z,58.45
2023-03-24T16:24:28.460Z,59.14
2023-03-24T16:26:56.227Z,59.67
2023-03-24T16:29:26.242Z,58.83
2023-03-24T16:31:57.350Z,59.28
2023-03-24T16:34:25.371Z,60.47
2023-03-24T16:36:54.854Z,60.59
2023-03-24T16:39:27.741Z,58.17
2023-03-24T16:41:56.826Z,59.57
2023-03-24T16:44:25.394Z,59.02
2023-03-24T16:46:55.648Z,58.04
2023-03-24T16:49:24.278Z,58.74
2023-03-24T16:51:53.210Z,58.08
2023-03-24T16:54:21.202Z,58.18
2023-03-24T16:56:49.139Z,57.36
2023-03-24T16:59:17.188Z,57.71
2023-03-24T17:01:47.372Z,57.91
2023-03-24T17:04:22.275Z,58.52
2023-03-24T17:06:54.408Z,59.62
2023-03-24T17:09:22.389Z,59.78
2023-03-24T17:11:59.032Z,60.35
2023-03-24T17:14:26.428Z,59.83
2023-03-24T17:16:54.032Z,60.84
2023-03-24T17:19:24.687Z,59.53
2023-03-24T17:22:06.644Z,60.38
2023-03-24T17:24:36.758Z,58.48
2023-03-24T17:27:18.935Z,58.41
2023-03-24T17:29:46.690Z,58.84
2023-03-24T17:32:14.137Z,58.44
2023-03-24T17:34:46.887Z,57.49
2023-03-24T17:37:14.374Z,57.96
2023-03-24T17:39:41.872Z,57.34
2023-03-24T17:42:09.505Z,57.32
2023-03-24T17:44:36.959Z,57.00
2023-03-24T17:47:04.695Z,57.10
2023-03-24T17:49:33.474Z,57.64
2023-03-24T17:52:00.911Z,57.07
2023-03-24T17:54:28.960Z,57.61
2023-03-24T17:56:56.526Z,58.19
2023-03-24T17:59:24.083Z,58.07
2023-03-24T18:01:51.662Z,58.30
2023-03-24T18:04:20.794Z,58.78
2023-03-24T18:06:48.250Z,58.93
2023-03-24T18:09:15.897Z,59.54
2023-03-24T18:11:43.613Z,59.59
2023-03-24T18:14:11.609Z,59.90
2023-03-24T18:16:40.357Z,59.95
2023-03-24T18:19:08.001Z,60.41
2023-03-24T18:21:35.890Z,60.61
2023-03-24T18:24:04.597Z,60.31
2023-03-24T18:26:33.636Z,59.90
2023-03-24T18:29:01.193Z,60.22
2023-03-24T18:31:32.057Z,59.24
2023-03-24T18:34:00.291Z,59.26
2023-03-24T18:36:29.137Z,59.38
2023-03-24T18:39:07.855Z,59.66
2023-03-24T18:41:37.449Z,60.07
2023-03-24T18:44:12.487Z,59.62
2023-03-24T18:46:40.395Z,59.39
2023-03-24T18:49:12.597Z,58.93
2023-03-24T18:51:40.194Z,58.89
2023-03-24T18:54:07.837Z,58.55
2023-03-24T18:56:35.360Z,58.86
2023-03-24T18:59:02.867Z,60.65
2023-03-24T19:01:33.134Z,60.85
2023-03-24T19:04:00.965Z,60.94
